createdAt,value
2019-05-11T16:54:05.246Z,49.40
2019-05-11T16:56:35.551Z,43.00
2019-05-11T16:59:07.972Z,46.80
2019-05-11T17:01:38.013Z,52.80
2019-05-11T17:04:08.201Z,49.40
2019-05-11T17:06:38.761Z,45.60
2019-05-11T17:09:09.125Z,55.80
2019-05-11T17:11:39.240Z,47.60
2019-05-11T17:14:09.173Z,54.40
2019-05-11T17:16:39.179Z,52.40
2019-05-11T17:19:09.130Z,51.40
2019-05-11T17:21:39.089Z,43.00
2019-05-11T17:24:09.054Z,43.40
2019-05-11T17:26:40.034Z,52.20
2019-05-11T17:29:10.205Z,44.60
2019-05-11T17:31:40.127Z,50.40
2019-05-11T17:34:10.076Z,50.60
2019-05-11T17:36:41.022Z,51.40
2019-05-11T17:39:11.048Z,48.20
2019-05-11T17:41:41.153Z,43.20
2019-05-11T17:44:11.181Z,43.20
2019-05-11T17:46:41.142Z,52.80
2019-05-11T17:49:11.190Z,54.40
2019-05-11T17:51:41.151Z,52.20
2019-05-11T17:54:11.429Z,46.40
2019-05-11T17:56:42.647Z,51.40
2019-05-11T17:59:12.734Z,51.20
2019-05-11T18:01:42.834Z,49.00
2019-05-11T18:04:12.890Z,49.80
2019-05-11T18:06:42.977Z,54.40
2019-05-11T18:09:13.264Z,52.60
2019-05-11T18:11:43.285Z,50.60
2019-05-11T18:14:13.731Z,49.00
2019-05-11T18:16:43.889Z,46.80
2019-05-11T18:19:14.015Z,51.20
2019-05-11T18:21:44.290Z,46.80
2019-05-11T18:24:14.342Z,52.80
2019-05-11T18:26:44.384Z,53.20
2019-05-11T18:29:14.347Z,54.00
2019-05-11T18:31:45.454Z,47.60
2019-05-11T18:34:17.734Z,54.00
2019-05-11T18:36:48.521Z,55.20
2019-05-11T18:39:18.769Z,56.60
2019-05-11T18:41:48.814Z,56.20
2019-05-11T18:44:19.809Z,58.00
2019-05-11T18:46:49.833Z,57.40
2019-05-11T18:49:19.776Z,56.40
2019-05-11T18:51:49.823Z,51.20
2019-05-11T18:54:19.784Z,60.40
2019-05-11T18:56:49.927Z,54.40
2019-05-11T18:59:20.108Z,61.60
2019-05-11T19:01:51.715Z,57.60
2019-05-11T19:04:21.657Z,58.40
2019-05-11T19:06:51.703Z,60.40
2019-05-11T19:09:21.748Z,63.20
2019-05-11T19:11:57.782Z,75.80
2019-05-11T19:14:30.760Z,63.40
2019-05-11T19:17:01.112Z,59.80
2019-05-11T19:19:33.675Z,65.00
2019-05-11T19:22:04.430Z,62.20
2019-05-11T19:24:34.996Z,61.00
2019-05-11T19:27:08.133Z,64.00
2019-05-11T19:29:39.013Z,66.00
2019-05-11T19:32:11.209Z,57.40
2019-05-11T19:34:41.533Z,59.00
2019-05-11T19:37:12.212Z,57.80
2019-05-11T19:39:42.398Z,54.20
2019-05-11T19:42:12.692Z,57.80
2019-05-11T19:44:43.255Z,60.00
2019-05-11T19:47:13.881Z,56.00
2019-05-11T19:49:47.895Z,57.00
2019-05-11T19:52:17.935Z,60.40
2019-05-11T19:54:48.790Z,58.00
2019-05-11T19:57:18.873Z,57.00
2019-05-11T19:59:51.452Z,57.00
2019-05-11T20:02:22.114Z,59.80
2019-05-11T20:04:52.350Z,54.80
2019-05-11T20:07:23.603Z,60.20
2019-05-11T20:09:53.760Z,56.80
2019-05-11T20:12:24.042Z,58.20
2019-05-11T20:14:54.388Z,54.60
2019-05-11T20:17:24.530Z,54.00
2019-05-11T20:19:54.718Z,57.00
2019-05-11T20:22:25.030Z,56.80
2019-05-11T20:24:55.062Z,53.20
2019-05-11T20:27:25.119Z,51.60
2019-05-11T20:29:55.262Z,47.60
2019-05-11T20:32:25.380Z,54.00
2019-05-11T20:34:57.698Z,57.20
2019-05-11T20:40:12.086Z,52.40
2019-05-11T20:42:42.042Z,48.00
2019-05-11T20:45:12.252Z,50.40
2019-05-11T20:47:42.162Z,51.00
2019-05-11T20:50:12.282Z,46.80
2019-05-11T20:52:43.402Z,48.00
2019-05-11T20:55:14.521Z,39.40
2019-05-11T20:57:44.550Z,42.20
2019-05-11T21:00:14.917Z,38.20
2019-05-11T21:02:44.978Z,36.60
2019-05-11T21:05:14.980Z,37.80
2019-05-11T21:07:45.028Z,50.20
2019-05-11T21:10:15.678Z,51.20
2019-05-11T21:12:45.642Z,48.00
2019-05-11T21:15:17.708Z,53.60
2019-05-11T21:17:50.312Z,52.00
2019-05-11T21:20:19.472Z,56.20
2019-05-11T21:22:49.712Z,55.40
2019-05-11T21:25:19.672Z,55.40
2019-05-11T21:27:52.038Z,55.00
2019-05-11T21:30:21.982Z,57.80
2019-05-11T21:32:51.943Z,58.00
2019-05-11T21:35:21.880Z,59.60
2019-05-11T21:37:51.830Z,57.40
2019-05-11T21:40:21.802Z,53.60
2019-05-11T21:45:24.228Z,41.60
2019-05-11T21:47:54.170Z,43.40
2019-05-11T21:50:24.159Z,36.80
2019-05-11T21:52:54.369Z,44.00
2019-05-11T21:55:24.374Z,47.20
2019-05-11T21:57:54.302Z,48.80
2019-05-11T22:00:28.075Z,55.80
2019-05-11T22:02:59.862Z,54.00
2019-05-11T22:05:29.853Z,64.00
2019-05-11T22:07:59.782Z,57.20
2019-05-11T22:10:29.782Z,65.20
2019-05-11T22:12:59.714Z,61.00
2019-05-11T22:15:30.995Z,48.00
2019-05-11T22:18:01.086Z,45.40
2019-05-11T22:20:31.045Z,43.60
2019-05-11T22:23:00.963Z,45.40
2019-05-11T22:25:30.912Z,53.60
2019-05-11T22:28:00.882Z,59.40
2019-05-11T22:30:30.843Z,55.40
2019-05-11T22:33:00.791Z,58.00
2019-05-11T22:35:30.782Z,44.20
2019-05-11T22:38:00.701Z,45.80
2019-05-11T22:40:31.006Z,53.00
2019-05-11T22:43:01.231Z,47.40
2019-05-11T22:45:31.372Z,51.60
2019-05-11T22:48:01.289Z,53.00
2019-05-11T22:50:31.262Z,54.00
2019-05-11T22:53:01.193Z,55.80
2019-05-11T22:55:31.118Z,67.40
2019-05-11T22:58:01.038Z,56.60
2019-05-11T23:00:33.932Z,60.80
2019-05-11T23:03:04.302Z,69.40
2019-05-11T23:05:34.520Z,58.20
2019-05-11T23:08:07.608Z,58.20
2019-05-11T23:13:11.238Z,58.00
2019-05-11T23:15:40.592Z,53.40
2019-05-11T23:18:10.698Z,60.80
2019-05-11T23:20:40.661Z,60.00
2019-05-11T23:23:10.726Z,62.60
2019-05-11T23:25:40.672Z,55.80
2019-05-11T23:28:10.662Z,60.20
2019-05-11T23:30:40.595Z,59.40
2019-05-11T23:33:10.589Z,61.80
2019-05-11T23:35:40.520Z,52.20
2019-05-11T23:38:10.493Z,60.40
2019-05-11T23:40:40.435Z,54.40
2019-05-11T23:43:10.728Z,58.20
2019-05-11T23:45:40.681Z,61.00
2019-05-11T23:48:10.752Z,58.80
2019-05-11T23:50:40.662Z,55.40
2019-05-11T23:53:10.640Z,62.20
2019-05-11T23:55:40.561Z,63.20
2019-05-11T23:58:10.525Z,61.60
